Terminal Aerodrome Forecast
Issued by NWS

Home | Current Version | Previous Version | Text Only | Print | Product List | Glossary On
Versions: 1 2 3 4 5 6 7 8 9 10 11 12 13 14 15 16
000
FTUS45 KTFX 222342
TAFLWT
TAF
KLWT 222342Z 2300/2324 02008KT 6SM BR VCSH SCT020 OVC035
      TEMPO 2300/2304 4SM -SHSN BR BKN018
     FM230600 02008KT 6SM -SHSN BR SCT015 OVC025 PROB30 2309/2315
      2SM -SHSN BR BKN012
     FM232000 05006KT P6SM SCT025 BKN040=

USA.gov is the U.S. government's official web portal to all federal, state and local government web resources and services.